Time;durP1;ratioP1;P1;durP2;ratioP2;P2;SDS_P1;SDS_P2;PMS_P1;PMS_P2;Temp;Humidity;BMP_temperature;BMP_pressure;BME280_temperature;BME280_humidity;BME280_pressure;Samples;Min_cycle;Max_cycle;Signal;HPM_P1;HPM_P2
2023/04/24 00:01:48;;;;;;;1.20;0.50;;;14.90;99.90;;;;;;5050184;28;20586;-75
2023/04/24 00:04:16;;;;;;;1.30;0.50;;;14.80;99.90;;;;;;5030985;28;20600;-71
2023/04/24 00:06:42;;;;;;;1.30;0.50;;;14.80;99.90;;;;;;5030158;28;20639;-72
2023/04/24 00:09:09;;;;;;;1.60;0.60;;;14.80;99.90;;;;;;5031075;28;20679;-72
2023/04/24 00:11:35;;;;;;;1.30;0.50;;;14.80;99.90;;;;;;5030270;28;20572;-71
2023/04/24 00:14:01;;;;;;;1.20;0.50;;;14.80;99.90;;;;;;5029272;28;20774;-71
2023/04/24 00:16:27;;;;;;;1.50;0.60;;;14.80;99.90;;;;;;5030565;28;20599;-71
2023/04/24 00:18:53;;;;;;;3.65;0.68;;;14.80;99.90;;;;;;5030367;28;20588;-71
2023/04/24 00:21:19;;;;;;;1.83;0.50;;;14.80;99.90;;;;;;5026434;28;20174;-71
2023/04/24 00:23:45;;;;;;;2.10;0.60;;;14.80;99.90;;;;;;5012189;28;20581;-71
2023/04/24 00:26:10;;;;;;;1.40;0.60;;;14.80;99.90;;;;;;5029034;28;20252;-71
2023/04/24 00:28:36;;;;;;;1.43;0.60;;;14.80;99.90;;;;;;5028968;28;20564;-71
2023/04/24 00:31:03;;;;;;;1.67;0.60;;;14.70;99.90;;;;;;5030747;28;20228;-71
2023/04/24 00:33:28;;;;;;;2.70;0.60;;;14.70;99.90;;;;;;5028754;28;20636;-71
2023/04/24 00:35:55;;;;;;;1.80;0.73;;;14.70;99.90;;;;;;5029144;28;20232;-72
2023/04/24 00:38:21;;;;;;;1.37;0.70;;;14.70;99.90;;;;;;5015334;28;20636;-71
2023/04/24 00:40:49;;;;;;;1.60;0.70;;;14.70;99.90;;;;;;5016329;28;20624;-71
2023/04/24 00:43:16;;;;;;;1.40;0.60;;;14.70;99.90;;;;;;5033033;28;20600;-71
2023/04/24 00:45:42;;;;;;;1.30;0.60;;;14.70;99.90;;;;;;5015460;28;20631;-71
2023/04/24 00:48:08;;;;;;;1.33;0.67;;;14.70;99.90;;;;;;5016729;28;20604;-71
2023/04/24 00:50:36;;;;;;;1.30;0.60;;;14.70;99.90;;;;;;5033600;28;20217;-72
2023/04/24 00:53:02;;;;;;;1.30;0.70;;;14.70;99.90;;;;;;5043377;28;20635;-71
2023/04/24 00:55:31;;;;;;;1.20;0.50;;;14.70;99.90;;;;;;5053706;28;21163;-71
2023/04/24 00:57:57;;;;;;;2.40;0.70;;;14.70;99.90;;;;;;5052839;28;20173;-71
2023/04/24 01:00:23;;;;;;;1.40;0.70;;;14.60;99.90;;;;;;5052255;28;20590;-71
2023/04/24 01:02:49;;;;;;;1.73;0.70;;;14.60;99.90;;;;;;5039413;28;20243;-72
2023/04/24 01:05:34;;;;;;;1.43;0.60;;;14.60;99.90;;;;;;5032245;28;20627;-72
2023/04/24 01:08:01;;;;;;;2.03;0.60;;;14.60;99.90;;;;;;5015903;28;20679;-72
2023/04/24 01:10:29;;;;;;;2.03;0.60;;;14.60;99.90;;;;;;5016030;28;20673;-71
2023/04/24 01:12:55;;;;;;;1.47;0.73;;;14.60;99.90;;;;;;5030155;28;20647;-71
2023/04/24 01:15:21;;;;;;;1.37;0.70;;;14.50;99.90;;;;;;5020054;28;20645;-71
2023/04/24 01:17:46;;;;;;;2.40;0.73;;;14.50;99.90;;;;;;5032725;28;20581;-71
2023/04/24 01:20:14;;;;;;;2.20;0.70;;;14.50;99.90;;;;;;5032528;28;20181;-72
2023/04/24 01:22:41;;;;;;;1.20;0.60;;;14.50;99.90;;;;;;5031503;28;20724;-71
2023/04/24 01:25:07;;;;;;;1.70;0.80;;;14.50;99.90;;;;;;5032160;28;20589;-71
2023/04/24 01:27:32;;;;;;;1.77;0.77;;;14.40;99.90;;;;;;5031808;28;20592;-71
2023/04/24 01:29:58;;;;;;;1.90;0.60;;;14.40;99.90;;;;;;5031964;28;20981;-71
2023/04/24 01:32:25;;;;;;;2.00;1.07;;;14.40;99.90;;;;;;5015459;28;20638;-71
2023/04/24 01:34:51;;;;;;;1.83;1.07;;;14.40;99.90;;;;;;5031820;28;20596;-71
2023/04/24 01:37:16;;;;;;;2.80;1.50;;;14.40;99.90;;;;;;5015406;28;21224;-71
2023/04/24 01:39:43;;;;;;;1.70;1.30;;;14.30;99.90;;;;;;5031694;28;20568;-71
2023/04/24 01:42:09;;;;;;;2.13;1.40;;;14.30;99.90;;;;;;5031978;28;20225;-71
2023/04/24 01:44:35;;;;;;;2.77;1.77;;;14.20;99.90;;;;;;5031346;28;20584;-71
2023/04/24 01:47:03;;;;;;;2.15;1.50;;;14.10;99.90;;;;;;5031328;28;20638;-71
2023/04/24 01:49:29;;;;;;;2.03;1.40;;;14.10;99.90;;;;;;5027628;28;20178;-71
2023/04/24 01:51:55;;;;;;;3.30;1.90;;;14.00;99.90;;;;;;5012074;28;20584;-71
2023/04/24 01:54:21;;;;;;;2.43;1.60;;;13.90;99.90;;;;;;5013044;28;20230;-71
2023/04/24 01:56:46;;;;;;;3.20;1.87;;;13.90;99.90;;;;;;5011294;28;21191;-71
2023/04/24 01:59:12;;;;;;;2.30;1.43;;;13.80;99.90;;;;;;5011943;28;20185;-71
2023/04/24 02:01:39;;;;;;;2.60;2.00;;;13.70;99.90;;;;;;5011112;28;20589;-71
2023/04/24 02:04:06;;;;;;;3.30;1.55;;;13.60;99.90;;;;;;5028512;28;20581;-71
2023/04/24 02:06:34;;;;;;;3.03;1.70;;;13.60;99.90;;;;;;5027596;28;20240;-71
2023/04/24 02:09:00;;;;;;;3.42;2.22;;;13.50;99.90;;;;;;5013083;28;20185;-71
2023/04/24 02:11:27;;;;;;;5.00;2.10;;;13.40;99.90;;;;;;5011203;28;20248;-71
2023/04/24 02:13:53;;;;;;;3.77;2.17;;;13.40;99.90;;;;;;5027964;28;21244;-71
2023/04/24 02:16:19;;;;;;;2.33;1.60;;;13.30;99.90;;;;;;5012524;28;20199;-71
2023/04/24 02:18:45;;;;;;;3.53;2.50;;;13.20;99.90;;;;;;5011076;28;20605;-71
2023/04/24 02:21:10;;;;;;;5.73;2.30;;;13.10;99.90;;;;;;5014602;28;20189;-71
2023/04/24 02:23:36;;;;;;;3.27;2.63;;;13.00;99.90;;;;;;5042582;28;20583;-71
2023/04/24 02:26:02;;;;;;;5.17;2.50;;;12.90;99.90;;;;;;5047507;28;20189;-71
2023/04/24 02:28:28;;;;;;;5.07;1.90;;;12.80;99.90;;;;;;5030874;28;20177;-71
2023/04/24 02:30:53;;;;;;;6.40;2.45;;;12.70;99.90;;;;;;5031134;28;20531;-71
2023/04/24 02:33:21;;;;;;;2.92;1.95;;;12.60;99.90;;;;;;5046864;28;20659;-71
2023/04/24 02:35:47;;;;;;;3.10;2.63;;;12.50;99.90;;;;;;5030855;28;20225;-71
2023/04/24 02:38:13;;;;;;;3.83;2.83;;;12.40;99.90;;;;;;5032173;28;20560;-71
2023/04/24 02:40:38;;;;;;;3.67;2.70;;;12.30;99.90;;;;;;5047047;28;20579;-71
2023/04/24 02:43:04;;;;;;;3.70;2.60;;;12.20;99.90;;;;;;5030504;28;20666;-71
2023/04/24 02:45:30;;;;;;;3.03;2.73;;;12.20;99.90;;;;;;5030407;28;20217;-72
2023/04/24 02:47:55;;;;;;;3.93;2.80;;;12.10;99.90;;;;;;5047334;28;20238;-71
2023/04/24 02:50:22;;;;;;;3.80;2.08;;;12.10;99.90;;;;;;5030377;28;20181;-71
2023/04/24 02:52:47;;;;;;;3.00;2.37;;;12.10;99.90;;;;;;5031841;28;20228;-72
2023/04/24 02:55:13;;;;;;;3.53;2.30;;;12.10;99.90;;;;;;5046745;28;20255;-71
2023/04/24 02:57:40;;;;;;;4.60;2.38;;;12.20;99.90;;;;;;5030517;28;20225;-71
2023/04/24 03:00:07;;;;;;;2.90;2.40;;;12.20;99.90;;;;;;5029779;28;20201;-71
2023/04/24 03:02:33;;;;;;;5.82;3.78;;;12.20;99.90;;;;;;5031439;28;20170;-71
2023/04/24 03:04:59;;;;;;;3.65;3.25;;;12.30;99.90;;;;;;5013818;28;20177;-72
2023/04/24 03:07:25;;;;;;;5.37;3.00;;;12.30;99.90;;;;;;5046659;28;20658;-72
2023/04/24 03:09:51;;;;;;;3.03;2.73;;;12.30;99.90;;;;;;5031758;28;20608;-71
2023/04/24 03:12:17;;;;;;;5.00;3.30;;;12.40;99.90;;;;;;5029747;28;20204;-71
2023/04/24 03:14:46;;;;;;;3.78;3.22;;;12.40;99.90;;;;;;5030358;28;20537;-73
2023/04/24 03:17:12;;;;;;;7.65;3.33;;;12.40;99.90;;;;;;5029080;28;20202;-71
2023/04/24 03:19:38;;;;;;;3.60;3.10;;;12.50;99.90;;;;;;5030101;28;20239;-70
2023/04/24 03:22:09;;;;;;;3.50;2.88;;;12.50;99.90;;;;;;5029535;28;20178;-71
2023/04/24 03:24:35;;;;;;;4.53;3.30;;;12.50;99.90;;;;;;5013611;28;20166;-71
2023/04/24 03:27:01;;;;;;;3.47;3.17;;;12.50;99.90;;;;;;5029868;28;20258;-71
2023/04/24 03:29:45;;;;;;;5.55;3.42;;;12.50;99.90;;;;;;5031153;28;20170;-72
2023/04/24 03:32:11;;;;;;;3.92;3.10;;;12.50;99.90;;;;;;5013778;28;20174;-71
2023/04/24 03:34:38;;;;;;;5.25;3.80;;;12.50;99.90;;;;;;5013235;28;20240;-72
2023/04/24 03:37:04;;;;;;;5.57;4.53;;;12.60;99.90;;;;;;5013316;28;20228;-71
2023/04/24 03:39:31;;;;;;;4.10;3.50;;;12.50;99.90;;;;;;5029580;28;20631;-71
2023/04/24 03:41:57;;;;;;;4.43;3.80;;;12.50;99.90;;;;;;5029717;28;20178;-72
2023/04/24 03:44:30;;;;;;;4.70;3.67;;;12.50;99.90;;;;;;5012826;28;20174;-72
2023/04/24 03:46:57;;;;;;;3.77;3.33;;;12.50;99.90;;;;;;5012910;28;20258;-72
2023/04/24 03:49:24;;;;;;;3.63;3.03;;;12.40;99.90;;;;;;5013042;28;20209;-72
2023/04/24 03:51:50;;;;;;;3.80;3.40;;;12.40;99.90;;;;;;5029455;28;20212;-71
2023/04/24 03:54:22;;;;;;;4.85;4.32;;;12.40;99.90;;;;;;5013226;28;20632;-71
2023/04/24 03:56:49;;;;;;;4.65;4.05;;;12.30;99.90;;;;;;5028804;28;20198;-71
2023/04/24 03:59:16;;;;;;;4.28;3.75;;;12.30;99.90;;;;;;5029792;28;20257;-71
2023/04/24 04:01:46;;;;;;;4.88;3.90;;;12.30;99.90;;;;;;5012522;28;20170;-71
2023/04/24 04:04:14;;;;;;;4.20;3.20;;;12.30;99.90;;;;;;5012996;28;20268;-70
2023/04/24 04:06:42;;;;;;;4.22;3.13;;;12.30;99.90;;;;;;5028862;28;20197;-71
2023/04/24 04:09:08;;;;;;;5.78;3.38;;;12.30;99.90;;;;;;5029602;28;20184;-71
2023/04/24 04:11:35;;;;;;;4.47;3.30;;;12.30;99.90;;;;;;4998112;28;20174;-71
2023/04/24 04:14:01;;;;;;;4.80;3.13;;;12.30;99.90;;;;;;5016749;28;20209;-71
2023/04/24 04:16:27;;;;;;;5.00;3.13;;;12.30;99.90;;;;;;5016475;28;20197;-71
2023/04/24 04:18:59;;;;;;;4.53;3.13;;;12.30;99.90;;;;;;5033650;28;20185;-70
2023/04/24 04:21:26;;;;;;;3.83;3.47;;;12.30;99.90;;;;;;5031816;28;20166;-70
2023/04/24 04:24:01;;;;;;;4.15;2.35;;;12.30;99.90;;;;;;5033024;28;20177;-71
2023/04/24 04:26:33;;;;;;;4.03;3.10;;;12.30;99.90;;;;;;5016834;28;20190;-71
2023/04/24 04:29:03;;;;;;;3.72;3.10;;;12.30;99.90;;;;;;5033168;28;20182;-71
2023/04/24 04:31:30;;;;;;;5.60;3.50;;;12.30;99.90;;;;;;5033311;28;20209;-71
2023/04/24 04:33:59;;;;;;;4.13;3.50;;;12.30;99.90;;;;;;5032967;28;20210;-72
2023/04/24 04:36:25;;;;;;;7.00;3.42;;;12.30;99.90;;;;;;5032773;28;20198;-72
2023/04/24 04:38:59;;;;;;;4.68;3.25;;;12.30;99.90;;;;;;5033054;28;20184;-71
2023/04/24 04:41:48;;;;;;;7.90;3.72;;;12.30;99.90;;;;;;5033921;28;20178;-72
2023/04/24 04:44:16;;;;;;;5.55;3.75;;;12.30;99.90;;;;;;5032575;28;20177;-71
2023/04/24 04:46:42;;;;;;;6.07;2.95;;;12.40;99.90;;;;;;5032760;28;20312;-71
2023/04/24 04:49:17;;;;;;;3.70;2.90;;;12.40;99.90;;;;;;5032941;28;20227;-71
2023/04/24 04:51:44;;;;;;;3.33;2.70;;;12.40;99.90;;;;;;5016400;28;20578;-71
2023/04/24 04:54:10;;;;;;;4.07;2.78;;;12.50;99.90;;;;;;5032400;28;20205;-71
2023/04/24 04:56:37;;;;;;;3.00;2.60;;;12.50;99.90;;;;;;5016233;28;20236;-71
2023/04/24 04:59:03;;;;;;;4.45;2.33;;;12.50;99.90;;;;;;5033064;28;20182;-71
2023/04/24 05:01:29;;;;;;;3.60;3.07;;;12.50;99.90;;;;;;5032406;28;20656;-71
2023/04/24 05:03:55;;;;;;;4.43;2.92;;;12.50;99.90;;;;;;5032647;28;20679;-72
2023/04/24 05:06:22;;;;;;;2.87;2.30;;;12.60;99.90;;;;;;5032015;28;20200;-70
2023/04/24 05:08:48;;;;;;;4.90;2.25;;;12.60;99.90;;;;;;5016226;28;20173;-70
2023/04/24 05:11:27;;;;;;;4.75;2.75;;;12.60;99.90;;;;;;5015452;28;20261;-70
2023/04/24 05:13:54;;;;;;;4.78;2.67;;;12.60;99.90;;;;;;4999719;28;20348;-71
2023/04/24 05:16:27;;;;;;;3.38;2.72;;;12.70;99.90;;;;;;5031968;28;20280;-70
2023/04/24 05:18:56;;;;;;;6.68;3.25;;;12.70;99.90;;;;;;5016092;28;20251;-70
2023/04/24 05:21:28;;;;;;;4.40;2.65;;;12.70;99.90;;;;;;5030435;28;20174;-71
2023/04/24 05:23:54;;;;;;;3.72;2.97;;;12.70;99.90;;;;;;5031509;28;20641;-72
2023/04/24 05:26:33;;;;;;;2.97;2.00;;;12.70;99.90;;;;;;5031717;28;20197;-73
2023/04/24 05:28:59;;;;;;;4.80;2.87;;;12.70;99.90;;;;;;5015876;28;20177;-73
2023/04/24 05:31:25;;;;;;;3.80;2.85;;;12.80;99.90;;;;;;5032261;28;20572;-74
2023/04/24 05:33:51;;;;;;;3.07;2.77;;;12.80;99.90;;;;;;5033099;28;20589;-73
2023/04/24 05:36:17;;;;;;;4.22;3.50;;;12.70;99.90;;;;;;5015322;28;20242;-73
2023/04/24 05:38:43;;;;;;;3.53;2.80;;;12.80;99.90;;;;;;5015541;28;20189;-73
2023/04/24 05:41:09;;;;;;;3.50;2.93;;;12.80;99.90;;;;;;5039400;28;20592;-73
2023/04/24 05:43:35;;;;;;;4.22;3.17;;;12.80;99.90;;;;;;5046855;28;20598;-73
2023/04/24 05:46:01;;;;;;;3.10;2.60;;;12.70;99.90;;;;;;5051681;28;20208;-72
2023/04/24 05:48:27;;;;;;;3.57;2.30;;;12.70;99.90;;;;;;5034777;28;20187;-73
2023/04/24 05:50:52;;;;;;;4.50;3.27;;;12.70;99.90;;;;;;5051883;28;20948;-72
2023/04/24 05:53:19;;;;;;;7.90;3.77;;;12.70;99.90;;;;;;5052711;28;20734;-72
2023/04/24 05:55:45;;;;;;;4.22;2.70;;;12.70;99.90;;;;;;5052864;28;20189;-72
2023/04/24 05:58:11;;;;;;;3.53;2.75;;;12.70;99.90;;;;;;5051822;28;20256;-72
2023/04/24 06:00:41;;;;;;;3.00;2.30;;;12.70;99.90;;;;;;5051307;28;20184;-72
2023/04/24 06:03:08;;;;;;;4.05;3.10;;;12.70;99.90;;;;;;5052540;28;20252;-73
2023/04/24 06:05:34;;;;;;;4.10;3.20;;;12.70;99.90;;;;;;5049071;28;20200;-73
2023/04/24 06:08:02;;;;;;;3.10;2.35;;;12.70;99.90;;;;;;5031556;28;20184;-73
2023/04/24 06:10:32;;;;;;;5.05;3.20;;;12.80;99.90;;;;;;5014712;28;20177;-72
2023/04/24 06:13:01;;;;;;;5.38;2.80;;;12.80;99.90;;;;;;5014886;28;20201;-72
2023/04/24 06:15:31;;;;;;;2.13;1.50;;;12.80;99.90;;;;;;5014491;28;20216;-72
2023/04/24 06:18:05;;;;;;;2.38;1.48;;;12.70;99.90;;;;;;5015014;28;20169;-72
2023/04/24 06:20:31;;;;;;;2.33;1.10;;;12.70;99.90;;;;;;5014320;28;20180;-72
2023/04/24 06:22:57;;;;;;;2.30;1.67;;;12.70;99.90;;;;;;5022354;28;20593;-72
2023/04/24 06:25:26;;;;;;;2.00;1.33;;;12.70;99.90;;;;;;5012674;28;20281;-72
2023/04/24 06:27:52;;;;;;;2.72;1.05;;;12.70;99.90;;;;;;5011073;28;20181;-73
2023/04/24 06:30:18;;;;;;;2.67;1.30;;;12.60;99.90;;;;;;5012781;28;20178;-72
2023/04/24 06:32:43;;;;;;;1.95;1.00;;;12.60;99.90;;;;;;5012208;28;20216;-73
2023/04/24 06:35:11;;;;;;;2.20;1.10;;;12.50;99.90;;;;;;5011107;28;20201;-74
2023/04/24 06:37:38;;;;;;;1.60;1.00;;;12.50;99.90;;;;;;5026086;28;20165;-73
2023/04/24 06:40:05;;;;;;;1.80;1.25;;;12.50;99.90;;;;;;5032082;28;20173;-74
2023/04/24 06:42:31;;;;;;;1.55;1.00;;;12.40;99.90;;;;;;5030460;28;20170;-74
2023/04/24 06:44:57;;;;;;;1.50;0.80;;;12.30;99.90;;;;;;5030908;28;20192;-74
2023/04/24 06:47:22;;;;;;;1.93;0.90;;;12.30;99.90;;;;;;5031796;28;20587;-74
2023/04/24 06:49:50;;;;;;;2.50;0.90;;;12.20;99.90;;;;;;5032120;28;20174;-73
2023/04/24 06:52:16;;;;;;;1.70;0.90;;;12.10;99.90;;;;;;5032291;28;20233;-73
2023/04/24 06:54:42;;;;;;;1.50;0.70;;;12.00;99.90;;;;;;5031791;28;20715;-73
2023/04/24 06:57:08;;;;;;;2.20;0.70;;;12.00;99.90;;;;;;5032140;28;20604;-73
2023/04/24 06:59:34;;;;;;;1.92;0.73;;;11.90;99.90;;;;;;5030632;28;20175;-73
2023/04/24 07:02:00;;;;;;;1.70;0.83;;;11.80;99.90;;;;;;5031961;28;20181;-73
2023/04/24 07:04:26;;;;;;;2.38;0.90;;;11.80;99.90;;;;;;5030342;28;20596;-73
2023/04/24 07:06:55;;;;;;;1.50;1.00;;;11.70;99.90;;;;;;5030665;28;20190;-73
2023/04/24 07:09:22;;;;;;;1.92;0.80;;;11.70;99.90;;;;;;5031971;28;20561;-73
2023/04/24 07:11:48;;;;;;;1.70;0.90;;;11.60;99.90;;;;;;5031770;28;20708;-73
2023/04/24 07:14:13;;;;;;;2.72;0.80;;;11.60;99.90;;;;;;5032088;28;20193;-73
2023/04/24 07:16:39;;;;;;;1.50;0.90;;;11.60;99.90;;;;;;5030329;28;20729;-74
2023/04/24 07:19:06;;;;;;;2.10;1.00;;;11.50;99.90;;;;;;5031922;28;20173;-73
2023/04/24 07:21:32;;;;;;;1.92;1.00;;;11.50;99.90;;;;;;5031348;28;20607;-73
2023/04/24 07:23:58;;;;;;;2.63;1.00;;;11.50;99.90;;;;;;5030624;28;20177;-73
2023/04/24 07:26:25;;;;;;;3.38;1.23;;;11.40;99.90;;;;;;5030935;28;20201;-73
2023/04/24 07:28:51;;;;;;;2.17;1.08;;;11.40;99.90;;;;;;5030407;28;20180;-74
2023/04/24 07:31:17;;;;;;;2.07;0.97;;;11.40;99.90;;;;;;5031197;28;20260;-73
2023/04/24 07:33:43;;;;;;;1.70;1.10;;;11.30;99.90;;;;;;5029794;28;20674;-73
2023/04/24 07:36:15;;;;;;;1.40;0.80;;;11.30;99.90;;;;;;5031106;28;20189;-73
2023/04/24 07:38:41;;;;;;;1.63;1.00;;;11.30;99.90;;;;;;5031152;28;20174;-74
2023/04/24 07:41:07;;;;;;;1.40;0.70;;;11.20;99.90;;;;;;5030327;28;20228;-73
2023/04/24 07:43:33;;;;;;;1.50;0.80;;;11.20;99.90;;;;;;5030967;28;20169;-73
2023/04/24 07:45:59;;;;;;;2.10;0.80;;;11.20;99.90;;;;;;5030737;28;20216;-73
2023/04/24 07:48:26;;;;;;;2.47;1.00;;;11.10;99.90;;;;;;5029684;28;20261;-73
2023/04/24 07:50:52;;;;;;;1.20;0.60;;;11.00;99.90;;;;;;5029973;28;20177;-73
2023/04/24 07:53:18;;;;;;;1.80;0.80;;;11.00;99.90;;;;;;5029979;28;20205;-73
2023/04/24 07:55:44;;;;;;;1.80;0.70;;;10.90;99.90;;;;;;5029379;28;20677;-73
2023/04/24 07:58:09;;;;;;;2.17;1.03;;;10.90;99.90;;;;;;5032084;28;20181;-74
2023/04/24 08:00:35;;;;;;;1.40;0.70;;;10.90;99.90;;;;;;5035559;28;20576;-73
2023/04/24 08:03:01;;;;;;;1.43;0.70;;;10.80;99.90;;;;;;5031246;28;20173;-73
2023/04/24 08:05:28;;;;;;;2.28;0.80;;;10.80;99.90;;;;;;5030497;28;20276;-73
2023/04/24 08:07:54;;;;;;;2.05;1.20;;;10.70;99.90;;;;;;5030066;28;20170;-73
2023/04/24 08:10:24;;;;;;;1.77;0.60;;;10.60;99.90;;;;;;5030698;28;20231;-74
2023/04/24 08:12:50;;;;;;;1.40;0.80;;;10.60;99.90;;;;;;5029492;28;20166;-73
2023/04/24 08:15:16;;;;;;;2.53;1.00;;;10.50;99.90;;;;;;5029607;28;20614;-73
2023/04/24 08:17:42;;;;;;;1.50;0.80;;;10.40;99.90;;;;;;5029359;28;20256;-73
2023/04/24 08:20:13;;;;;;;2.60;0.90;;;10.40;99.90;;;;;;5029541;28;20257;-74
2023/04/24 08:22:42;;;;;;;1.70;0.70;;;10.30;99.90;;;;;;5029526;28;20944;-73
2023/04/24 08:25:09;;;;;;;1.50;0.80;;;10.30;99.90;;;;;;5029672;28;20240;-73
2023/04/24 08:27:36;;;;;;;2.28;0.90;;;10.20;99.90;;;;;;5030380;28;20181;-73
2023/04/24 08:30:03;;;;;;;1.38;0.70;;;10.10;99.90;;;;;;5031238;28;20235;-73
2023/04/24 08:32:28;;;;;;;2.35;1.00;;;10.10;99.90;;;;;;5030572;28;20174;-72
2023/04/24 08:34:56;;;;;;;3.10;0.80;;;10.00;99.90;;;;;;5029611;28;20254;-72
2023/04/24 08:37:26;;;;;;;1.77;1.00;;;9.90;99.90;;;;;;5013281;28;20182;-73
2023/04/24 08:39:52;;;;;;;1.55;0.77;;;9.90;99.90;;;;;;5029489;28;20524;-73
2023/04/24 08:42:19;;;;;;;2.70;0.70;;;9.80;99.90;;;;;;5029438;28;20180;-72
2023/04/24 08:44:45;;;;;;;1.55;0.80;;;9.80;99.90;;;;;;5029000;28;20635;-73
2023/04/24 08:47:11;;;;;;;1.40;0.90;;;9.80;99.90;;;;;;5030967;28;20237;-72
2023/04/24 08:49:38;;;;;;;2.55;0.80;;;9.80;99.90;;;;;;5030284;28;21046;-73
2023/04/24 08:52:05;;;;;;;1.73;0.80;;;9.80;99.90;;;;;;5029687;28;20205;-72
2023/04/24 08:54:33;;;;;;;1.48;0.80;;;9.80;99.90;;;;;;5030357;28;20197;-72
2023/04/24 08:57:03;;;;;;;3.88;1.13;;;9.80;99.90;;;;;;5029448;28;20200;-72
2023/04/24 08:59:30;;;;;;;1.60;1.08;;;9.80;99.90;;;;;;5032357;28;20185;-72
2023/04/24 09:01:57;;;;;;;1.63;1.17;;;9.80;99.90;;;;;;5032734;28;20184;-72
2023/04/24 09:04:24;;;;;;;2.20;1.00;;;9.80;99.90;;;;;;5034427;28;20177;-72
2023/04/24 09:06:56;;;;;;;2.28;1.45;;;9.80;99.90;;;;;;5033890;28;20198;-73
2023/04/24 09:09:22;;;;;;;1.92;1.30;;;9.80;99.90;;;;;;5034399;28;20174;-73
2023/04/24 09:11:50;;;;;;;3.22;1.77;;;9.80;99.90;;;;;;5032620;28;20188;-73
2023/04/24 09:14:16;;;;;;;2.35;1.45;;;9.80;99.90;;;;;;5032095;28;20296;-73
2023/04/24 09:16:42;;;;;;;3.45;2.30;;;9.80;99.90;;;;;;5032429;28;20202;-73
2023/04/24 09:19:08;;;;;;;4.25;2.30;;;9.80;99.90;;;;;;5032607;28;20182;-73
2023/04/24 09:21:35;;;;;;;6.40;3.67;;;9.80;99.90;;;;;;5032888;28;20183;-73
2023/04/24 09:24:06;;;;;;;3.90;2.70;;;9.90;99.90;;;;;;5033646;28;20180;-73
2023/04/24 09:26:35;;;;;;;4.05;2.78;;;9.90;99.90;;;;;;5032653;28;20220;-73
2023/04/24 09:29:02;;;;;;;3.17;2.88;;;9.90;99.90;;;;;;5033570;28;20252;-72
2023/04/24 09:31:29;;;;;;;3.83;3.20;;;10.00;99.90;;;;;;5033830;28;20557;-72
2023/04/24 09:33:57;;;;;;;8.32;3.92;;;10.00;99.90;;;;;;5031990;28;20704;-73
2023/04/24 09:36:34;;;;;;;6.32;3.80;;;10.10;99.90;;;;;;5032347;28;20185;-73
2023/04/24 09:39:05;;;;;;;4.18;3.35;;;10.10;99.90;;;;;;5032360;28;20579;-73
2023/04/24 09:41:32;;;;;;;5.40;3.72;;;10.20;99.90;;;;;;5032188;28;20556;-73
2023/04/24 09:44:12;;;;;;;5.00;3.17;;;10.20;99.90;;;;;;5033706;28;20176;-73
2023/04/24 09:46:37;;;;;;;4.97;4.25;;;10.30;99.90;;;;;;5033051;28;20205;-73
2023/04/24 09:49:15;;;;;;;7.20;4.70;;;10.40;99.90;;;;;;5033311;28;20273;-73
2023/04/24 09:51:41;;;;;;;6.55;4.55;;;10.40;99.90;;;;;;5032385;28;20169;-73
2023/04/24 09:54:20;;;;;;;4.90;4.33;;;10.60;99.90;;;;;;5033070;28;20604;-74
2023/04/24 09:56:48;;;;;;;5.53;3.60;;;10.60;99.90;;;;;;5031577;28;20603;-73
2023/04/24 09:59:15;;;;;;;6.53;4.05;;;10.70;99.90;;;;;;5033329;28;20253;-74
2023/04/24 10:01:42;;;;;;;6.20;4.93;;;10.80;99.90;;;;;;5015225;28;20170;-73
2023/04/24 10:04:27;;;;;;;4.68;4.18;;;11.00;99.90;;;;;;5033059;28;20683;-73
2023/04/24 10:06:55;;;;;;;4.43;3.70;;;11.00;99.90;;;;;;5031987;28;20225;-73
2023/04/24 10:09:23;;;;;;;7.60;5.70;;;11.10;99.90;;;;;;5032199;28;20174;-73
2023/04/24 10:11:51;;;;;;;5.05;4.25;;;11.20;99.90;;;;;;5033204;28;20177;-73
2023/04/24 10:14:20;;;;;;;8.95;3.90;;;11.30;99.90;;;;;;5032204;28;20201;-73
2023/04/24 10:16:49;;;;;;;5.32;3.22;;;11.40;99.90;;;;;;5031663;28;20562;-73
2023/04/24 10:19:16;;;;;;;8.82;3.10;;;11.50;99.90;;;;;;5031220;28;20647;-74
2023/04/24 10:21:46;;;;;;;4.10;2.83;;;11.60;99.90;;;;;;5032992;28;20173;-74
2023/04/24 10:24:13;;;;;;;3.38;2.50;;;11.70;99.90;;;;;;5032502;28;20165;-74
2023/04/24 10:26:40;;;;;;;4.28;2.95;;;11.80;99.90;;;;;;5032755;28;20572;-74
2023/04/24 10:29:09;;;;;;;4.68;3.53;;;12.00;99.90;;;;;;5032893;28;20178;-74
2023/04/24 10:31:36;;;;;;;5.63;3.10;;;12.00;99.90;;;;;;5030799;28;20264;-74
2023/04/24 10:34:04;;;;;;;5.60;3.05;;;12.10;99.90;;;;;;5031448;28;20220;-74
2023/04/24 10:36:32;;;;;;;5.38;3.10;;;12.20;99.90;;;;;;5032131;28;20189;-74
2023/04/24 10:39:00;;;;;;;4.70;2.70;;;12.30;99.90;;;;;;5031399;28;20220;-72
2023/04/24 10:41:27;;;;;;;4.05;2.70;;;12.30;99.90;;;;;;5032146;28;20815;-73
2023/04/24 10:44:06;;;;;;;7.30;3.80;;;12.40;99.90;;;;;;5032491;28;20224;-74
2023/04/24 10:46:31;;;;;;;7.35;3.22;;;12.40;99.90;;;;;;5032142;28;20752;-73
2023/04/24 10:48:58;;;;;;;3.80;2.77;;;12.50;99.90;;;;;;5032198;28;20534;-72
2023/04/24 10:51:25;;;;;;;4.88;2.10;;;12.50;99.90;;;;;;5032299;28;20182;-73
2023/04/24 10:53:51;;;;;;;5.82;3.08;;;12.50;99.90;;;;;;5030445;28;20869;-72
2023/04/24 10:56:17;;;;;;;7.63;3.73;;;12.50;99.90;;;;;;5030979;28;20201;-73
2023/04/24 10:58:49;;;;;;;5.38;2.92;;;12.60;99.90;;;;;;5030775;28;20588;-72
2023/04/24 11:01:31;;;;;;;8.13;3.50;;;12.80;99.90;;;;;;5032166;28;20203;-73
2023/04/24 11:04:02;;;;;;;9.02;3.70;;;12.90;99.90;;;;;;5030778;28;20235;-73
2023/04/24 11:06:32;;;;;;;6.70;3.53;;;13.00;99.90;;;;;;5031888;28;20224;-73
2023/04/24 11:09:16;;;;;;;12.60;4.85;;;13.10;99.90;;;;;;5030334;28;20270;-72
2023/04/24 11:11:46;;;;;;;7.38;3.85;;;13.10;99.90;;;;;;5031663;28;20200;-73
2023/04/24 11:14:15;;;;;;;4.60;3.88;;;13.10;99.90;;;;;;5030382;28;20202;-72
2023/04/24 11:16:57;;;;;;;8.00;3.00;;;13.10;99.90;;;;;;5029941;28;20201;-73
2023/04/24 11:19:28;;;;;;;7.03;2.80;;;13.00;99.90;;;;;;5031801;28;20170;-73
2023/04/24 11:22:01;;;;;;;5.70;2.35;;;13.00;99.90;;;;;;5029107;28;20249;-74
2023/04/24 11:24:37;;;;;;;4.53;2.47;;;13.00;99.90;;;;;;5031653;28;20181;-73
2023/04/24 11:27:04;;;;;;;5.22;2.80;;;12.90;99.90;;;;;;5012893;28;20670;-73
2023/04/24 11:29:55;;;;;;;5.13;2.90;;;12.90;99.90;;;;;;5030189;28;20177;-73
2023/04/24 11:32:35;;;;;;;4.63;3.03;;;13.00;99.90;;;;;;5013160;28;20185;-73
2023/04/24 11:35:16;;;;;;;5.05;2.40;;;13.00;99.90;;;;;;5031195;28;20217;-73
2023/04/24 11:37:47;;;;;;;6.80;2.85;;;13.10;99.90;;;;;;5030531;28;20707;-73
2023/04/24 11:40:17;;;;;;;6.82;3.45;;;13.10;99.90;;;;;;5031334;28;20162;-73
2023/04/24 11:42:44;;;;;;;4.53;4.00;;;13.10;99.90;;;;;;5029878;28;20268;-73
2023/04/24 11:45:21;;;;;;;6.03;3.00;;;13.20;99.90;;;;;;5029077;28;20526;-73
2023/04/24 11:47:47;;;;;;;7.20;3.80;;;13.30;99.90;;;;;;5047850;28;20184;-73
2023/04/24 11:50:21;;;;;;;8.80;3.07;;;13.40;99.90;;;;;;5050558;28;20929;-73
2023/04/24 11:52:48;;;;;;;8.47;3.00;;;13.60;99.90;;;;;;5051220;28;20609;-73
2023/04/24 11:55:14;;;;;;;8.40;3.75;;;13.90;99.90;;;;;;5050311;28;20637;-73
2023/04/24 11:57:44;;;;;;;6.50;3.60;;;14.10;99.90;;;;;;5050657;28;20164;-73
2023/04/24 12:00:17;;;;;;;10.90;3.00;;;14.20;99.90;;;;;;5050411;28;20169;-73
2023/04/24 12:02:42;;;;;;;6.03;2.93;;;14.20;99.90;;;;;;5051018;28;20567;-73
2023/04/24 12:05:08;;;;;;;5.73;2.30;;;14.20;99.90;;;;;;5049607;28;20594;-73
2023/04/24 12:07:44;;;;;;;5.30;2.80;;;14.30;99.90;;;;;;5050286;28;20177;-73
2023/04/24 12:10:10;;;;;;;6.70;3.17;;;14.40;99.90;;;;;;5049554;28;20934;-73
2023/04/24 12:12:35;;;;;;;5.40;3.60;;;14.60;99.90;;;;;;5048863;28;20678;-73
2023/04/24 12:15:07;;;;;;;4.93;2.50;;;14.80;99.90;;;;;;5033041;28;20232;-73
2023/04/24 12:17:34;;;;;;;4.13;2.50;;;14.90;99.90;;;;;;5028843;28;20597;-73
2023/04/24 12:20:08;;;;;;;4.73;2.13;;;14.90;99.90;;;;;;5029681;28;20596;-73
2023/04/24 12:22:47;;;;;;;5.20;2.60;;;14.90;99.90;;;;;;5028576;28;20638;-73
2023/04/24 12:25:18;;;;;;;5.93;3.80;;;15.00;99.90;;;;;;5030706;28;20581;-73
2023/04/24 12:27:45;;;;;;;3.70;2.53;;;15.10;99.90;;;;;;5029292;28;20572;-73
2023/04/24 12:30:15;;;;;;;7.50;3.33;;;15.20;99.90;;;;;;5029215;28;20584;-73
2023/04/24 12:32:49;;;;;;;6.93;2.80;;;15.20;99.90;;;;;;5031104;28;20642;-74
2023/04/24 12:35:23;;;;;;;7.23;3.20;;;15.20;99.90;;;;;;5034146;28;20595;-74
2023/04/24 12:37:49;;;;;;;6.33;2.60;;;15.30;99.90;;;;;;5016600;28;21171;-73
2023/04/24 12:40:15;;;;;;;9.07;3.97;;;15.50;99.90;;;;;;5033547;28;20682;-74
2023/04/24 12:42:49;;;;;;;8.60;4.70;;;15.50;99.90;;;;;;5033240;28;20596;-74
2023/04/24 12:45:16;;;;;;;6.07;2.60;;;15.60;99.90;;;;;;5033741;28;20619;-74
2023/04/24 12:47:43;;;;;;;7.47;3.10;;;15.70;99.90;;;;;;5033676;28;21012;-77
2023/04/24 12:50:14;;;;;;;5.17;2.87;;;15.70;99.90;;;;;;5033065;28;20687;-77
2023/04/24 12:52:40;;;;;;;6.30;2.90;;;15.70;99.90;;;;;;5034151;28;20584;-77